createdAt,value
2018-04-17T00:00:52.646Z,87.10
2018-04-17T00:03:20.956Z,87.00
2018-04-17T00:05:49.656Z,86.90
2018-04-17T00:08:18.573Z,87.70
2018-04-17T00:10:46.686Z,86.80
2018-04-17T00:13:14.787Z,86.80
2018-04-17T00:15:42.910Z,86.80
2018-04-17T00:18:12.182Z,86.70
2018-04-17T00:20:40.357Z,86.60
2018-04-17T00:23:08.562Z,86.70
2018-04-17T00:25:36.756Z,86.70
2018-04-17T00:28:05.507Z,86.80
2018-04-17T00:30:35.239Z,86.90
2018-04-17T00:33:03.349Z,86.90
2018-04-17T00:35:31.486Z,86.80
2018-04-17T00:37:59.618Z,86.80
2018-04-17T00:40:27.725Z,86.90
2018-04-17T00:42:55.827Z,87.00
2018-04-17T00:45:23.989Z,87.00
2018-04-17T00:47:52.234Z,87.00
2018-04-17T00:50:20.363Z,87.00
2018-04-17T00:52:48.492Z,87.00
2018-04-17T00:55:16.682Z,87.00
2018-04-17T00:57:49.618Z,87.10
2018-04-17T01:00:17.734Z,86.90
2018-04-17T01:02:45.867Z,87.00
2018-04-17T01:05:14.022Z,87.00
2018-04-17T01:07:42.156Z,87.00
2018-04-17T01:10:10.397Z,87.10
2018-04-17T01:12:38.573Z,87.20
2018-04-17T01:15:06.722Z,87.20
2018-04-17T01:17:34.846Z,87.20
2018-04-17T01:20:02.943Z,87.20
2018-04-17T01:22:32.888Z,87.10
2018-04-17T01:25:01.003Z,87.10
2018-04-17T01:27:29.166Z,87.10
2018-04-17T01:29:57.306Z,87.20
2018-04-17T01:32:25.774Z,87.20
2018-04-17T01:34:53.934Z,87.10
2018-04-17T01:37:22.046Z,87.10
2018-04-17T01:39:50.253Z,87.00
2018-04-17T01:42:18.347Z,87.00
2018-04-17T01:44:46.916Z,87.10
2018-04-17T01:47:15.048Z,87.10
2018-04-17T01:49:43.277Z,86.90
2018-04-17T01:52:11.453Z,86.80
2018-04-17T01:54:40.073Z,86.80
2018-04-17T01:57:08.206Z,86.70
2018-04-17T01:59:36.342Z,86.60
2018-04-17T02:02:04.951Z,86.60
2018-04-17T02:04:33.063Z,86.60
2018-04-17T02:07:01.195Z,86.50
2018-04-17T02:09:29.295Z,86.40
2018-04-17T02:11:57.420Z,86.40
2018-04-17T02:14:25.595Z,86.50
2018-04-17T02:16:53.711Z,86.60
2018-04-17T02:19:21.819Z,86.70
2018-04-17T02:21:49.946Z,86.50
2018-04-17T02:24:18.069Z,86.50
2018-04-17T02:26:46.177Z,86.50
2018-04-17T02:29:14.372Z,86.50
2018-04-17T02:31:42.537Z,86.50
2018-04-17T02:34:11.427Z,86.60
2018-04-17T02:36:39.545Z,86.40
2018-04-17T02:39:07.665Z,86.50
2018-04-17T02:41:36.401Z,86.50
2018-04-17T02:44:04.528Z,86.50
2018-04-17T02:46:32.669Z,86.50
2018-04-17T02:49:00.764Z,86.50
2018-04-17T02:51:28.856Z,86.50
2018-04-17T02:53:56.982Z,86.50
2018-04-17T02:56:26.020Z,86.60
2018-04-17T02:58:55.028Z,86.40
2018-04-17T03:01:23.471Z,86.40
2018-04-17T03:03:51.619Z,86.30
2018-04-17T03:06:20.718Z,86.30
2018-04-17T03:08:48.897Z,86.20
2018-04-17T03:11:17.023Z,86.30
2018-04-17T03:13:47.300Z,87.10
2018-04-17T03:25:55.517Z,86.30
2018-04-17T03:28:23.584Z,86.50
2018-04-17T03:30:51.712Z,86.60
2018-04-17T03:33:19.992Z,86.70
2018-04-17T03:35:48.204Z,86.70
2018-04-17T03:38:16.783Z,86.70
2018-04-17T03:40:44.903Z,86.50
2018-04-17T03:43:13.028Z,87.20
2018-04-17T03:45:41.734Z,85.90
2018-04-17T03:48:10.098Z,85.60
2018-04-17T04:03:33.278Z,85.20
2018-04-17T04:06:01.470Z,86.90
2018-04-17T04:08:31.184Z,87.10
2018-04-17T04:10:59.319Z,87.10
2018-04-17T04:13:27.428Z,86.90
2018-04-17T04:15:55.558Z,86.80
2018-04-17T04:18:42.166Z,86.60
2018-04-17T04:21:27.955Z,86.50
2018-04-17T04:24:14.240Z,86.20
2018-04-17T04:26:42.358Z,86.00
2018-04-17T04:29:10.473Z,85.80
2018-04-17T04:31:38.611Z,85.80
2018-04-17T04:34:06.721Z,85.60
2018-04-17T04:36:34.823Z,85.60
2018-04-17T04:39:02.930Z,85.50
2018-04-17T04:41:31.023Z,85.50
2018-04-17T04:43:59.809Z,85.40
2018-04-17T04:46:29.371Z,85.40
2018-04-17T04:48:58.892Z,85.40
2018-04-17T04:51:27.043Z,85.40
2018-04-17T04:53:55.145Z,85.30
2018-04-17T04:56:23.329Z,85.40
2018-04-17T04:58:51.842Z,85.60
2018-04-17T05:01:20.576Z,86.00
2018-04-17T05:03:48.667Z,86.40
2018-04-17T05:06:16.804Z,86.70
2018-04-17T05:08:45.149Z,86.80
2018-04-17T05:11:13.290Z,87.10
2018-04-17T05:13:41.450Z,87.30
2018-04-17T05:16:09.543Z,88.40
2018-04-17T05:18:37.650Z,88.00
2018-04-17T05:21:05.757Z,88.30
2018-04-17T05:23:33.898Z,88.50
2018-04-17T05:26:01.987Z,88.60
2018-04-17T05:28:30.111Z,87.60
2018-04-17T05:31:01.054Z,87.70
2018-04-17T05:33:29.164Z,87.70
2018-04-17T05:35:57.299Z,87.60
2018-04-17T05:38:26.211Z,87.30
2018-04-17T05:40:54.370Z,87.30
2018-04-17T05:43:22.831Z,87.30
2018-04-17T05:45:51.392Z,87.20
2018-04-17T05:48:19.572Z,87.20
2018-04-17T05:50:47.706Z,87.20
2018-04-17T05:53:15.886Z,87.30
2018-04-17T05:55:44.053Z,87.20
2018-04-17T05:58:12.123Z,87.30
2018-04-17T06:00:40.239Z,87.30
2018-04-17T06:03:08.389Z,87.40
2018-04-17T06:05:37.590Z,87.50
2018-04-17T06:08:05.750Z,87.50
2018-04-17T06:10:33.877Z,87.50
2018-04-17T06:13:02.027Z,87.50
2018-04-17T06:15:30.136Z,87.50
2018-04-17T06:17:59.013Z,87.70
2018-04-17T06:20:27.130Z,87.70
2018-04-17T06:22:55.263Z,87.80
2018-04-17T06:25:23.411Z,87.70
2018-04-17T06:27:51.555Z,87.80
2018-04-17T06:30:20.254Z,87.80
2018-04-17T06:32:48.470Z,87.80
2018-04-17T06:35:17.363Z,87.90
2018-04-17T06:37:45.546Z,87.90
2018-04-17T06:40:13.655Z,87.90
2018-04-17T06:42:41.819Z,87.80
2018-04-17T06:45:09.910Z,87.90
2018-04-17T06:47:38.150Z,87.90
2018-04-17T06:50:06.175Z,87.90
2018-04-17T06:52:34.324Z,87.90
2018-04-17T06:55:02.589Z,88.00
2018-04-17T06:57:30.843Z,87.90
2018-04-17T06:59:59.656Z,87.90
2018-04-17T07:02:28.502Z,87.80
2018-04-17T07:04:56.681Z,87.90
2018-04-17T07:07:24.794Z,87.80
2018-04-17T07:09:52.917Z,87.90
2018-04-17T07:12:21.059Z,87.80
2018-04-17T07:14:53.063Z,87.80
2018-04-17T07:17:21.162Z,87.80
2018-04-17T07:19:50.227Z,87.80
2018-04-17T07:22:19.235Z,87.70
2018-04-17T07:24:47.433Z,87.80
2018-04-17T07:27:15.655Z,87.90
2018-04-17T07:29:43.801Z,88.10
2018-04-17T07:32:13.079Z,88.10
2018-04-17T07:34:45.923Z,88.00
2018-04-17T07:37:14.088Z,89.00
2018-04-17T07:39:42.187Z,88.00
2018-04-17T07:42:10.286Z,87.90
2018-04-17T07:44:38.397Z,87.90
2018-04-17T07:47:30.805Z,87.80
2018-04-17T07:49:58.932Z,87.60
2018-04-17T07:52:27.059Z,87.50
2018-04-17T07:54:55.176Z,87.50
2018-04-17T07:57:23.272Z,87.40
2018-04-17T07:59:51.398Z,87.50
2018-04-17T08:02:19.538Z,87.40
2018-04-17T08:04:47.660Z,87.20
2018-04-17T08:07:15.865Z,86.80
2018-04-17T08:09:43.980Z,86.60
2018-04-17T08:12:12.095Z,86.50
2018-04-17T08:14:40.200Z,86.50
2018-04-17T08:17:08.313Z,86.40
2018-04-17T08:19:36.406Z,86.40
2018-04-17T08:22:04.512Z,86.40
2018-04-17T08:24:32.634Z,86.50
2018-04-17T08:27:00.881Z,86.40
2018-04-17T08:29:29.020Z,86.30
2018-04-17T08:31:57.110Z,86.30
2018-04-17T08:34:26.000Z,86.00
2018-04-17T08:36:54.173Z,86.00
2018-04-17T08:39:22.251Z,85.80
2018-04-17T08:41:50.344Z,86.60
2018-04-17T08:44:18.456Z,85.70
2018-04-17T08:46:46.562Z,85.60
2018-04-17T08:49:14.685Z,85.60
2018-04-17T08:51:42.812Z,85.60
2018-04-17T08:54:10.902Z,85.60
2018-04-17T08:56:39.023Z,85.40
2018-04-17T08:59:07.135Z,85.40
2018-04-17T09:01:35.319Z,85.30
2018-04-17T09:04:03.620Z,85.20
2018-04-17T09:06:31.848Z,85.40
2018-04-17T09:09:00.112Z,85.40
2018-04-17T09:11:28.352Z,85.40
2018-04-17T09:13:56.639Z,85.30
2018-04-17T09:16:24.867Z,85.10
2018-04-17T09:18:58.069Z,85.10
2018-04-17T09:21:26.169Z,85.00
2018-04-17T09:23:54.344Z,85.00
2018-04-17T09:26:22.450Z,85.00
2018-04-17T09:28:51.051Z,84.90
2018-04-17T09:31:19.198Z,84.80
2018-04-17T09:33:47.462Z,84.70
2018-04-17T09:36:15.797Z,84.50
2018-04-17T09:38:43.975Z,84.30
2018-04-17T09:41:12.124Z,84.20
2018-04-17T09:43:41.068Z,83.30
2018-04-17T09:46:09.162Z,83.20
2018-04-17T09:48:37.282Z,82.80
2018-04-17T09:51:05.396Z,82.70
2018-04-17T09:53:33.514Z,82.50
2018-04-17T09:56:01.646Z,82.10
2018-04-17T09:58:29.930Z,81.80
2018-04-17T10:00:58.799Z,81.50
2018-04-17T10:03:26.896Z,81.40
2018-04-17T10:05:55.055Z,81.00
2018-04-17T10:08:23.156Z,80.60
2018-04-17T10:10:52.052Z,79.50
2018-04-17T10:13:21.130Z,79.00
2018-04-17T10:15:49.260Z,78.70
2018-04-17T10:18:17.367Z,78.70
2018-04-17T10:20:45.540Z,78.50
2018-04-17T10:23:13.648Z,78.10
2018-04-17T10:25:42.514Z,77.50
2018-04-17T10:28:11.462Z,77.20
2018-04-17T10:30:39.559Z,76.80
2018-04-17T10:33:07.659Z,76.00
2018-04-17T10:35:35.758Z,75.30
2018-04-17T10:38:03.875Z,74.60
2018-04-17T10:40:31.968Z,74.00
2018-04-17T10:43:00.083Z,73.50
2018-04-17T10:45:28.205Z,73.10
2018-04-17T10:47:56.287Z,72.60
2018-04-17T10:50:24.389Z,72.30
2018-04-17T10:52:52.495Z,71.20
2018-04-17T10:55:20.647Z,70.70
2018-04-17T10:57:48.780Z,70.00
2018-04-17T11:00:16.892Z,69.00
2018-04-17T11:02:45.065Z,68.20
2018-04-17T11:05:13.214Z,66.90
2018-04-17T11:07:41.352Z,66.00
2018-04-17T11:10:09.481Z,64.80
2018-04-17T11:12:37.654Z,64.30
2018-04-17T11:15:05.748Z,64.00
2018-04-17T11:17:33.854Z,63.90
2018-04-17T11:20:02.052Z,63.20
2018-04-17T11:22:30.285Z,62.70
2018-04-17T11:24:58.645Z,62.40
2018-04-17T11:27:26.818Z,62.30
2018-04-17T11:29:55.054Z,62.10
2018-04-17T11:32:23.940Z,60.70
2018-04-17T11:34:52.035Z,60.20
2018-04-17T11:37:20.148Z,60.00
2018-04-17T11:39:48.270Z,59.60
2018-04-17T11:42:16.355Z,59.20
2018-04-17T11:44:45.320Z,59.00
2018-04-17T11:47:13.424Z,58.70
2018-04-17T11:49:41.606Z,58.20
2018-04-17T11:52:09.725Z,57.90
2018-04-17T11:54:37.835Z,57.80
2018-04-17T11:57:06.037Z,57.30
2018-04-17T11:59:34.192Z,57.00
2018-04-17T12:02:02.315Z,56.80
2018-04-17T12:04:30.596Z,56.40
2018-04-17T12:06:58.716Z,56.20
2018-04-17T12:09:26.809Z,55.90
2018-04-17T12:11:54.941Z,56.00
2018-04-17T12:14:23.404Z,56.10
2018-04-17T12:16:51.523Z,56.10
2018-04-17T12:19:19.657Z,56.30
2018-04-17T12:21:47.757Z,56.40
2018-04-17T12:24:15.876Z,56.40
2018-04-17T12:26:44.004Z,56.30
2018-04-17T12:29:12.176Z,56.20
2018-04-17T12:31:40.318Z,55.70
2018-04-17T12:34:09.188Z,55.40
2018-04-17T12:36:37.312Z,55.10
2018-04-17T12:39:06.361Z,55.30
2018-04-17T12:41:35.292Z,55.20
2018-04-17T12:44:03.393Z,54.80
2018-04-17T12:46:31.556Z,55.10
2018-04-17T12:48:59.656Z,55.00
2018-04-17T12:51:27.757Z,54.40
2018-04-17T12:53:56.636Z,53.30
2018-04-17T12:56:25.206Z,53.00
2018-04-17T12:58:53.327Z,53.00
2018-04-17T13:01:21.438Z,52.80
2018-04-17T13:03:49.580Z,52.80
2018-04-17T13:06:17.710Z,52.70
2018-04-17T13:08:45.871Z,52.50
2018-04-17T13:11:13.982Z,52.40
2018-04-17T13:13:42.084Z,52.60
2018-04-17T13:16:10.267Z,52.70
2018-04-17T13:18:38.380Z,52.60
2018-04-17T13:21:06.495Z,52.40
2018-04-17T13:23:34.594Z,52.30
2018-04-17T13:26:02.707Z,52.30
2018-04-17T13:28:30.851Z,52.40
2018-04-17T13:30:58.969Z,52.80
2018-04-17T13:33:27.101Z,52.90
2018-04-17T13:35:55.217Z,53.00
2018-04-17T13:38:23.307Z,52.90
2018-04-17T13:40:51.430Z,52.30
2018-04-17T13:43:19.623Z,51.40
2018-04-17T13:45:47.736Z,50.50
2018-04-17T13:48:15.922Z,49.30
2018-04-17T13:50:44.443Z,48.10
2018-04-17T13:53:12.606Z,47.00
2018-04-17T13:55:40.723Z,46.10
2018-04-17T13:58:08.886Z,45.40
2018-04-17T14:00:37.021Z,44.80
2018-04-17T14:03:05.111Z,44.00
2018-04-17T14:05:33.833Z,43.70
2018-04-17T14:08:01.984Z,43.50
2018-04-17T14:10:30.179Z,43.60
2018-04-17T14:12:58.351Z,43.90
2018-04-17T14:15:26.615Z,44.00
2018-04-17T14:17:54.807Z,43.90
2018-04-17T14:20:22.927Z,43.70
2018-04-17T14:22:51.051Z,43.60
2018-04-17T14:25:19.154Z,43.10
2018-04-17T14:27:48.030Z,42.80
2018-04-17T14:30:16.138Z,42.80
2018-04-17T14:32:44.318Z,42.80
2018-04-17T14:35:12.448Z,42.60
2018-04-17T14:37:40.570Z,42.30
2018-04-17T14:40:08.679Z,42.10
2018-04-17T14:42:36.815Z,42.00
2018-04-17T14:45:04.921Z,41.60
2018-04-17T14:47:33.045Z,41.30
2018-04-17T14:50:01.905Z,42.10
2018-04-17T14:52:30.032Z,41.90
2018-04-17T14:54:58.133Z,43.30
2018-04-17T14:57:26.241Z,43.70
2018-04-17T14:59:54.361Z,42.50
2018-04-17T15:02:22.478Z,41.00
2018-04-17T15:04:50.609Z,40.20
2018-04-17T15:07:18.819Z,39.70
2018-04-17T15:09:47.015Z,39.00
2018-04-17T15:12:15.108Z,38.70
2018-04-17T15:14:43.213Z,38.50
2018-04-17T15:17:11.311Z,37.70
2018-04-17T15:19:39.427Z,37.30
2018-04-17T15:22:07.532Z,37.10
2018-04-17T15:24:35.709Z,36.90
2018-04-17T15:27:03.827Z,36.50
2018-04-17T15:29:32.716Z,35.70
2018-04-17T15:32:00.836Z,35.30
2018-04-17T15:34:28.936Z,35.50
2018-04-17T15:36:57.764Z,35.40
2018-04-17T15:39:26.641Z,34.80
2018-04-17T15:41:54.731Z,34.50
2018-04-17T15:44:22.857Z,34.60
2018-04-17T15:46:50.967Z,34.80
2018-04-17T15:49:19.091Z,34.50
2018-04-17T15:51:47.205Z,34.40
2018-04-17T15:54:15.341Z,34.20
2018-04-17T15:56:43.451Z,33.80
2018-04-17T15:59:11.587Z,33.50
2018-04-17T16:01:40.475Z,33.00
2018-04-17T16:04:08.595Z,32.80
2018-04-17T16:06:36.727Z,32.40
2018-04-17T16:09:04.867Z,32.10
2018-04-17T16:11:32.967Z,32.00
2018-04-17T16:14:01.062Z,31.90
2018-04-17T16:16:29.184Z,32.10
2018-04-17T16:18:57.312Z,32.20
2018-04-17T16:21:25.460Z,32.00
2018-04-17T16:23:53.562Z,31.60
2018-04-17T16:26:25.682Z,31.60
2018-04-17T16:28:53.775Z,31.80
2018-04-17T16:31:21.894Z,32.40
2018-04-17T16:33:50.039Z,32.60
2018-04-17T16:36:18.138Z,32.80
2018-04-17T16:38:46.262Z,33.20
2018-04-17T16:41:14.393Z,33.50
2018-04-17T16:43:44.459Z,33.90
2018-04-17T16:46:12.757Z,34.50
2018-04-17T16:48:41.670Z,35.50
2018-04-17T16:51:09.803Z,35.20
2018-04-17T16:53:38.627Z,35.80
2018-04-17T16:56:06.755Z,36.30
2018-04-17T16:58:34.873Z,36.90
2018-04-17T17:01:03.023Z,37.50
2018-04-17T17:03:31.775Z,37.90
2018-04-17T17:05:59.888Z,38.20
2018-04-17T17:08:27.982Z,38.60
2018-04-17T17:10:56.119Z,38.80
2018-04-17T17:13:24.255Z,39.10
2018-04-17T17:15:52.381Z,39.60
2018-04-17T17:18:24.450Z,39.80
2018-04-17T17:20:53.337Z,40.40
2018-04-17T17:23:22.215Z,40.60
2018-04-17T17:25:59.723Z,40.40
2018-04-17T17:28:28.586Z,41.10
2018-04-17T17:30:56.779Z,41.00
2018-04-17T17:33:24.938Z,41.20
2018-04-17T17:35:53.164Z,42.10
2018-04-17T17:38:21.294Z,41.70
2018-04-17T17:40:49.424Z,41.90
2018-04-17T17:43:17.562Z,42.90
2018-04-17T17:45:46.431Z,42.60
2018-04-17T17:48:14.544Z,43.10
2018-04-17T17:50:43.140Z,43.50
2018-04-17T17:53:11.255Z,43.90
2018-04-17T17:55:39.366Z,44.30
2018-04-17T17:58:07.930Z,44.90
2018-04-17T18:00:36.960Z,45.80
2018-04-17T18:03:05.088Z,45.70
2018-04-17T18:05:33.216Z,46.20
2018-04-17T18:08:01.337Z,46.50
2018-04-17T18:10:29.711Z,46.90
2018-04-17T18:12:59.377Z,48.10
2018-04-17T18:15:27.532Z,47.50
2018-04-17T18:17:55.654Z,47.80
2018-04-17T18:20:23.820Z,48.00
2018-04-17T18:22:51.943Z,48.60
2018-04-17T18:25:20.053Z,49.20
2018-04-17T18:27:48.196Z,49.60
2018-04-17T18:30:38.333Z,49.90
2018-04-17T18:33:06.453Z,50.30
2018-04-17T18:35:34.759Z,50.60
2018-04-17T18:38:02.906Z,50.90
2018-04-17T18:40:31.063Z,51.30
2018-04-17T18:43:22.341Z,51.60
2018-04-17T18:45:50.795Z,51.80
2018-04-17T18:48:18.905Z,52.10
2018-04-17T18:50:46.989Z,52.80
2018-04-17T18:53:15.467Z,52.40
2018-04-17T18:55:44.338Z,53.30
2018-04-17T18:58:12.484Z,52.90
2018-04-17T19:00:40.668Z,53.10
2018-04-17T19:03:08.779Z,53.30
2018-04-17T19:05:37.851Z,53.70
2018-04-17T19:08:06.155Z,53.60
2018-04-17T19:10:35.054Z,53.90
2018-04-17T19:13:03.150Z,53.90
2018-04-17T19:15:31.283Z,54.20
2018-04-17T19:17:59.394Z,54.40
2018-04-17T19:20:27.589Z,54.40
2018-04-17T19:22:55.708Z,54.60
2018-04-17T19:25:23.850Z,54.70
2018-04-17T19:27:52.026Z,54.80
2018-04-17T19:30:20.291Z,54.90
2018-04-17T19:32:48.419Z,55.20
2018-04-17T19:35:16.583Z,55.20
2018-04-17T19:37:45.007Z,55.40
2018-04-17T19:40:13.129Z,55.60
2018-04-17T19:42:41.244Z,55.80
2018-04-17T19:45:26.460Z,56.00
2018-04-17T19:47:54.770Z,56.10
2018-04-17T19:50:23.121Z,56.30
2018-04-17T19:52:51.296Z,56.30
2018-04-17T19:55:20.162Z,56.60
2018-04-17T19:57:48.302Z,56.60
2018-04-17T20:00:16.404Z,56.60
2018-04-17T20:02:44.528Z,56.70
2018-04-17T20:05:12.645Z,56.90
2018-04-17T20:07:40.768Z,57.00
2018-04-17T20:10:08.884Z,57.10
2018-04-17T20:12:37.004Z,57.30
2018-04-17T20:15:05.170Z,57.40
2018-04-17T20:17:33.288Z,57.60
2018-04-17T20:20:01.422Z,57.60
2018-04-17T20:22:29.545Z,57.80
2018-04-17T20:24:57.661Z,57.80
2018-04-17T20:27:26.532Z,57.90
2018-04-17T20:29:54.642Z,57.90
2018-04-17T20:32:23.543Z,58.10
2018-04-17T20:34:51.651Z,58.10
2018-04-17T20:37:19.790Z,58.10
2018-04-17T20:39:47.888Z,58.30
2018-04-17T20:42:16.027Z,58.30
2018-04-17T20:44:45.527Z,58.70
2018-04-17T20:47:13.647Z,58.60
2018-04-17T20:49:41.766Z,58.80
2018-04-17T20:52:09.901Z,59.00
2018-04-17T20:54:38.057Z,59.10
2018-04-17T20:57:06.188Z,59.20
2018-04-17T20:59:35.525Z,59.30
2018-04-17T21:02:03.626Z,59.50
2018-04-17T21:04:31.827Z,59.60
2018-04-17T21:07:00.274Z,59.60
2018-04-17T21:09:28.384Z,59.70
2018-04-17T21:11:57.076Z,59.60
2018-04-17T21:14:25.440Z,59.70
2018-04-17T21:16:53.632Z,59.70
2018-04-17T21:19:21.906Z,59.80
2018-04-17T21:21:50.140Z,59.90
2018-04-17T21:24:18.261Z,60.00
2018-04-17T21:26:46.470Z,60.00
2018-04-17T21:29:14.740Z,60.20
2018-04-17T21:31:42.916Z,60.20
2018-04-17T21:34:11.831Z,60.30
2018-04-17T21:36:40.009Z,60.30
2018-04-17T21:39:10.837Z,60.40
2018-04-17T21:41:38.945Z,60.40
2018-04-17T21:44:07.133Z,60.40
2018-04-17T21:46:35.391Z,60.50
2018-04-17T21:49:04.697Z,60.70
2018-04-17T21:51:32.837Z,61.90
2018-04-17T21:54:00.938Z,62.00
2018-04-17T21:56:29.799Z,62.10
2018-04-17T21:58:57.934Z,62.00
2018-04-17T22:01:29.730Z,62.10
2018-04-17T22:03:57.846Z,62.30
2018-04-17T22:06:25.957Z,62.50
2018-04-17T22:08:54.114Z,62.50
2018-04-17T22:11:22.580Z,62.70
2018-04-17T22:13:51.702Z,62.80
2018-04-17T22:29:14.831Z,62.70
2018-04-17T22:31:47.175Z,62.60
2018-04-17T22:34:17.703Z,63.10
2018-04-17T22:36:45.841Z,63.50
2018-04-17T22:39:13.943Z,63.70
2018-04-17T22:41:42.072Z,64.00
2018-04-17T22:44:10.293Z,64.10
2018-04-17T22:46:39.145Z,64.30
2018-04-17T22:49:07.262Z,64.20
2018-04-17T22:51:35.414Z,64.30
2018-04-17T22:54:03.532Z,64.30
2018-04-17T23:06:11.649Z,64.30
2018-04-17T23:08:39.762Z,63.80
2018-04-17T23:11:07.847Z,63.90
2018-04-17T23:13:36.015Z,64.60
2018-04-17T23:16:04.099Z,64.80
2018-04-17T23:18:32.174Z,65.00
2018-04-17T23:21:00.283Z,65.00
2018-04-17T23:23:28.388Z,65.00
2018-04-17T23:25:56.487Z,65.00
2018-04-17T23:28:24.654Z,65.00
2018-04-17T23:30:52.759Z,65.00
2018-04-17T23:33:20.861Z,65.00
2018-04-17T23:35:48.960Z,65.10
2018-04-17T23:38:17.073Z,65.20
2018-04-17T23:40:45.178Z,65.20
2018-04-17T23:43:13.294Z,65.20
2018-04-17T23:45:41.497Z,65.00
2018-04-17T23:48:09.734Z,65.10
2018-04-17T23:50:37.975Z,65.20
2018-04-17T23:53:06.510Z,65.30
2018-04-17T23:55:34.625Z,65.30
2018-04-17T23:58:04.454Z,65.30
